Time;durP1;ratioP1;P1;durP2;ratioP2;P2;SDS_P1;SDS_P2;PMS_P1;PMS_P2;Temp;Humidity;BMP_temperature;BMP_pressure;BME280_temperature;BME280_humidity;BME280_pressure;Samples;Min_cycle;Max_cycle;Signal;HPM_P1;HPM_P2
2023/05/17 00:00:08;;;;;;;7.72;2.75;;;14.00;95.20;;;;;;5073340;28;20036;-69
2023/05/17 00:02:34;;;;;;;8.70;2.85;;;14.00;95.30;;;;;;5072977;28;20013;-69
2023/05/17 00:05:00;;;;;;;10.98;2.90;;;14.00;95.30;;;;;;5071776;28;20071;-69
2023/05/17 00:07:25;;;;;;;10.05;3.35;;;14.00;95.40;;;;;;5073009;28;20048;-69
2023/05/17 00:09:51;;;;;;;7.75;3.10;;;14.00;95.40;;;;;;5073182;28;20028;-69
2023/05/17 00:12:17;;;;;;;6.60;2.63;;;14.00;95.30;;;;;;5071618;28;20024;-69
2023/05/17 00:14:42;;;;;;;10.38;2.60;;;14.00;95.30;;;;;;5071854;28;20354;-69
2023/05/17 00:17:08;;;;;;;12.90;3.17;;;13.90;95.30;;;;;;5051988;28;20013;-69
2023/05/17 00:19:34;;;;;;;5.82;2.67;;;13.90;95.40;;;;;;5032758;28;20501;-68
2023/05/17 00:21:59;;;;;;;9.65;3.13;;;13.80;95.50;;;;;;5032648;28;20037;-69
2023/05/17 00:24:26;;;;;;;11.63;2.85;;;13.80;95.50;;;;;;5032925;28;20037;-68
2023/05/17 00:26:51;;;;;;;11.75;3.10;;;13.80;95.60;;;;;;5032508;28;20421;-69
2023/05/17 00:29:17;;;;;;;11.77;3.47;;;13.80;95.60;;;;;;5033180;28;20029;-68
2023/05/17 00:31:42;;;;;;;8.55;3.10;;;13.80;95.70;;;;;;5032624;28;20031;-69
2023/05/17 00:34:08;;;;;;;13.55;3.50;;;13.80;95.80;;;;;;5032712;28;20033;-69
2023/05/17 00:36:34;;;;;;;11.88;3.55;;;13.70;95.80;;;;;;5032745;28;20022;-69
2023/05/17 00:38:59;;;;;;;6.82;3.00;;;13.70;95.90;;;;;;5032895;28;20021;-68
2023/05/17 00:41:25;;;;;;;13.02;3.08;;;13.70;95.90;;;;;;5032567;28;20040;-68
2023/05/17 00:43:50;;;;;;;12.98;3.28;;;13.70;96.00;;;;;;5032943;28;20040;-70
2023/05/17 00:46:16;;;;;;;7.30;2.65;;;13.70;96.10;;;;;;5040187;28;20479;-70
2023/05/17 00:48:42;;;;;;;13.88;3.47;;;13.70;96.10;;;;;;5046853;28;20025;-70
2023/05/17 00:51:08;;;;;;;9.50;3.35;;;13.70;96.10;;;;;;5049954;28;20082;-68
2023/05/17 00:53:36;;;;;;;12.68;3.30;;;13.70;96.30;;;;;;5050671;28;20475;-68
2023/05/17 00:56:02;;;;;;;10.40;3.08;;;13.60;96.40;;;;;;5053966;28;20482;-68
2023/05/17 00:58:29;;;;;;;8.93;2.80;;;13.60;96.40;;;;;;5055217;28;20024;-68
2023/05/17 01:00:55;;;;;;;11.27;3.13;;;13.60;96.70;;;;;;5056463;28;20474;-68
2023/05/17 01:03:23;;;;;;;10.23;3.17;;;13.60;96.40;;;;;;5056204;28;20037;-68
2023/05/17 01:05:49;;;;;;;11.05;3.10;;;13.60;96.40;;;;;;5056733;28;20060;-68
2023/05/17 01:08:15;;;;;;;9.88;3.10;;;13.50;96.50;;;;;;5056473;28;20102;-68
2023/05/17 01:11:04;;;;;;;8.00;3.13;;;13.50;96.50;;;;;;5056332;28;20463;-68
2023/05/17 01:13:30;;;;;;;14.40;3.30;;;13.50;96.50;;;;;;5056375;28;20385;-67
2023/05/17 01:16:25;;;;;;;13.43;3.35;;;13.50;96.50;;;;;;5056296;28;20096;-68
2023/05/17 01:19:44;;;;;;;8.55;2.78;;;13.50;96.50;;;;;;5055786;28;20041;-68
2023/05/17 01:22:37;;;;;;;9.30;3.40;;;13.50;96.50;;;;;;5055098;28;20060;-69
2023/05/17 01:25:25;;;;;;;11.52;3.53;;;13.50;96.50;;;;;;5056252;28;20048;-68
2023/05/17 01:27:54;;;;;;;9.82;3.38;;;13.40;96.40;;;;;;5055833;28;20071;-68
2023/05/17 01:30:23;;;;;;;12.38;3.95;;;13.40;96.40;;;;;;5055960;28;20056;-69
2023/05/17 01:32:49;;;;;;;8.13;2.80;;;13.30;96.30;;;;;;5055481;28;20017;-69
2023/05/17 01:35:15;;;;;;;11.38;3.85;;;13.30;96.40;;;;;;5056151;28;20484;-68
2023/05/17 01:37:40;;;;;;;8.90;3.38;;;13.40;96.50;;;;;;5055815;28;20021;-68
2023/05/17 01:40:08;;;;;;;8.98;3.67;;;13.30;96.50;;;;;;5055740;28;20028;-68
2023/05/17 01:42:39;;;;;;;11.52;3.25;;;13.30;96.40;;;;;;5055671;28;20482;-69
2023/05/17 01:45:25;;;;;;;9.60;2.88;;;13.30;96.40;;;;;;5056077;28;20501;-69
2023/05/17 01:48:19;;;;;;;8.15;3.17;;;13.30;96.50;;;;;;5055093;28;20169;-68
2023/05/17 01:50:49;;;;;;;8.38;2.95;;;13.20;96.60;;;;;;5055343;28;20024;-67
2023/05/17 01:53:47;;;;;;;10.60;3.10;;;13.20;96.50;;;;;;5055419;28;20024;-68
2023/05/17 01:56:25;;;;;;;9.50;3.67;;;13.20;96.70;;;;;;5055400;28;20033;-68
2023/05/17 01:58:52;;;;;;;7.82;3.35;;;13.20;96.80;;;;;;5055168;28;20470;-68
2023/05/17 02:01:20;;;;;;;12.80;4.03;;;13.10;97.00;;;;;;5055181;28;20032;-67
2023/05/17 02:03:49;;;;;;;12.05;3.78;;;13.10;97.10;;;;;;5055255;28;20033;-68
2023/05/17 02:06:15;;;;;;;12.13;4.07;;;13.10;97.10;;;;;;5055265;28;20386;-67
2023/05/17 02:08:41;;;;;;;10.10;3.55;;;13.10;97.10;;;;;;5054356;28;20461;-70
2023/05/17 02:11:07;;;;;;;12.63;4.07;;;13.10;97.20;;;;;;5055044;28;20502;-68
2023/05/17 02:13:33;;;;;;;13.20;4.18;;;13.10;97.30;;;;;;5055007;28;20094;-67
2023/05/17 02:16:02;;;;;;;11.63;3.97;;;13.10;97.30;;;;;;5055144;28;20013;-68
2023/05/17 02:18:28;;;;;;;10.68;3.72;;;13.10;97.30;;;;;;5054946;28;20037;-71
2023/05/17 02:20:55;;;;;;;10.25;3.70;;;13.10;97.30;;;;;;5053773;28;20017;-69
2023/05/17 02:23:20;;;;;;;9.07;3.40;;;13.10;97.40;;;;;;5055067;28;20098;-68
2023/05/17 02:25:46;;;;;;;9.35;3.70;;;13.10;97.40;;;;;;5054851;28;20466;-68
2023/05/17 02:28:11;;;;;;;10.48;3.88;;;13.00;97.50;;;;;;5054951;28;20041;-68
2023/05/17 02:30:40;;;;;;;10.98;3.97;;;13.00;97.40;;;;;;5054602;28;20024;-68
2023/05/17 02:33:06;;;;;;;10.20;4.32;;;13.00;97.40;;;;;;5054988;28;20029;-68
2023/05/17 02:35:32;;;;;;;8.52;4.43;;;13.00;97.40;;;;;;5053595;28;20382;-68
2023/05/17 02:37:58;;;;;;;12.73;5.75;;;13.00;97.40;;;;;;5054843;28;20036;-68
2023/05/17 02:40:23;;;;;;;18.10;5.10;;;12.90;97.50;;;;;;5054544;28;20029;-67
2023/05/17 02:42:49;;;;;;;13.07;4.80;;;13.00;97.40;;;;;;5054689;28;20429;-67
2023/05/17 02:45:15;;;;;;;11.95;5.07;;;13.00;97.30;;;;;;5054419;28;20429;-68
2023/05/17 02:47:40;;;;;;;10.55;4.78;;;12.90;97.30;;;;;;5053438;28;20021;-69
2023/05/17 02:50:07;;;;;;;16.17;6.05;;;12.90;97.40;;;;;;5054494;28;20017;-68
2023/05/17 02:52:33;;;;;;;13.95;5.45;;;12.90;97.50;;;;;;5054529;28;20414;-68
2023/05/17 02:54:58;;;;;;;11.65;4.68;;;12.90;97.70;;;;;;5054332;28;20021;-67
2023/05/17 02:57:24;;;;;;;12.73;4.70;;;12.90;97.80;;;;;;5054365;28;20122;-68
2023/05/17 02:59:49;;;;;;;10.90;4.55;;;12.80;98.20;;;;;;5054028;28;20032;-68
2023/05/17 03:02:15;;;;;;;12.38;4.88;;;12.80;98.00;;;;;;5054436;28;20044;-68
2023/05/17 03:04:40;;;;;;;14.63;5.07;;;12.80;98.00;;;;;;5054194;28;20112;-68
2023/05/17 03:07:06;;;;;;;10.27;4.70;;;12.80;98.10;;;;;;5054241;28;20060;-68
2023/05/17 03:09:32;;;;;;;12.52;4.85;;;12.80;98.30;;;;;;5054058;28;20079;-67
2023/05/17 03:11:57;;;;;;;9.90;4.28;;;12.80;98.40;;;;;;5054175;28;20096;-68
2023/05/17 03:14:23;;;;;;;12.75;4.78;;;12.70;98.50;;;;;;5052560;28;20497;-68
2023/05/17 03:16:49;;;;;;;15.63;5.40;;;12.80;98.60;;;;;;5054025;28;20033;-68
2023/05/17 03:19:15;;;;;;;11.55;5.03;;;12.80;98.60;;;;;;5053110;28;20025;-68
2023/05/17 03:21:40;;;;;;;11.38;5.55;;;12.80;98.70;;;;;;5053678;28;20025;-68
2023/05/17 03:24:06;;;;;;;15.15;5.90;;;12.70;99.00;;;;;;5053964;28;20033;-68
2023/05/17 03:26:32;;;;;;;11.00;5.15;;;12.70;98.80;;;;;;5053761;28;20025;-68
2023/05/17 03:28:58;;;;;;;12.95;5.35;;;12.70;98.90;;;;;;5053657;28;20450;-67
2023/05/17 03:31:24;;;;;;;10.93;5.10;;;12.70;99.00;;;;;;5053549;28;20406;-68
2023/05/17 03:33:50;;;;;;;14.10;5.78;;;12.70;99.10;;;;;;5053607;28;20117;-68
2023/05/17 03:36:15;;;;;;;12.60;5.47;;;12.70;99.10;;;;;;5053613;28;20060;-69
2023/05/17 03:38:41;;;;;;;9.35;5.60;;;12.80;99.20;;;;;;5052515;28;20053;-68
2023/05/17 03:41:07;;;;;;;15.75;6.38;;;12.70;99.30;;;;;;5052232;28;20028;-68
2023/05/17 03:43:32;;;;;;;16.23;6.07;;;12.80;99.60;;;;;;5053327;28;20041;-68
2023/05/17 03:45:58;;;;;;;14.68;6.10;;;12.70;99.50;;;;;;5053298;28;20104;-68
2023/05/17 03:48:24;;;;;;;13.35;6.00;;;12.70;99.60;;;;;;5052335;28;20044;-68
2023/05/17 03:50:50;;;;;;;12.85;6.07;;;12.70;99.70;;;;;;5053269;28;20029;-69
2023/05/17 03:53:15;;;;;;;11.45;5.28;;;12.70;99.70;;;;;;5053462;28;20025;-67
2023/05/17 03:55:41;;;;;;;13.27;5.95;;;12.70;99.70;;;;;;5052650;28;20479;-68
2023/05/17 03:58:06;;;;;;;14.02;6.18;;;12.70;99.70;;;;;;5053046;28;20036;-67
2023/05/17 04:00:32;;;;;;;15.45;6.13;;;12.70;99.80;;;;;;5053367;28;20104;-68
2023/05/17 04:02:58;;;;;;;13.27;5.25;;;12.70;99.90;;;;;;5052022;28;20409;-68
2023/05/17 04:05:23;;;;;;;11.27;5.97;;;12.70;99.90;;;;;;5053189;28;20083;-68
2023/05/17 04:07:49;;;;;;;14.40;5.60;;;12.70;99.90;;;;;;5053196;28;20029;-68
2023/05/17 04:10:15;;;;;;;16.67;5.88;;;12.70;99.90;;;;;;5052994;28;20438;-68
2023/05/17 04:12:40;;;;;;;19.00;5.85;;;12.70;99.90;;;;;;5052931;28;20021;-71
2023/05/17 04:15:06;;;;;;;13.77;4.93;;;12.80;99.40;;;;;;5053110;28;20029;-70
2023/05/17 04:17:32;;;;;;;13.02;4.68;;;12.80;98.90;;;;;;5053048;28;20027;-71
2023/05/17 04:19:58;;;;;;;13.10;5.03;;;12.80;98.80;;;;;;5052952;28;20029;-70
2023/05/17 04:22:23;;;;;;;11.18;4.20;;;12.90;98.80;;;;;;5052813;28;20025;-69
2023/05/17 04:24:49;;;;;;;12.65;4.65;;;12.80;98.80;;;;;;5052851;28;20033;-72
2023/05/17 04:27:15;;;;;;;16.58;5.60;;;12.80;99.00;;;;;;5052583;28;20171;-70
2023/05/17 04:29:40;;;;;;;14.68;5.28;;;12.90;99.00;;;;;;5052955;28;20036;-67
2023/05/17 04:32:07;;;;;;;12.52;5.55;;;12.90;98.90;;;;;;5052555;28;20075;-69
2023/05/17 04:34:33;;;;;;;17.38;5.18;;;12.90;99.00;;;;;;5052725;28;20031;-68
2023/05/17 04:36:59;;;;;;;11.80;4.70;;;13.00;99.00;;;;;;5052655;28;20025;-72
2023/05/17 04:39:25;;;;;;;13.90;5.65;;;12.90;98.90;;;;;;5052835;28;20505;-67
2023/05/17 04:41:50;;;;;;;13.90;5.45;;;12.90;99.00;;;;;;5052503;28;20031;-67
2023/05/17 04:44:16;;;;;;;13.93;5.38;;;13.00;99.10;;;;;;5052690;28;20114;-72
2023/05/17 04:46:42;;;;;;;14.90;5.70;;;13.00;99.20;;;;;;5052601;28;20489;-69
2023/05/17 04:49:08;;;;;;;10.80;5.28;;;13.00;99.20;;;;;;5052621;28;20017;-71
2023/05/17 04:51:34;;;;;;;10.43;5.35;;;13.00;99.30;;;;;;5052695;28;20017;-69
2023/05/17 04:54:00;;;;;;;14.27;5.20;;;13.00;99.30;;;;;;5052549;28;20067;-69
2023/05/17 04:56:27;;;;;;;11.18;5.32;;;13.00;99.40;;;;;;5052373;28;20057;-71
2023/05/17 04:58:53;;;;;;;13.52;5.13;;;13.00;99.50;;;;;;5052565;28;20039;-71
2023/05/17 05:01:18;;;;;;;11.95;5.25;;;13.10;99.50;;;;;;5050267;28;20020;-71
2023/05/17 05:03:44;;;;;;;12.70;5.30;;;13.10;99.50;;;;;;5052295;28;20466;-70
2023/05/17 05:06:10;;;;;;;12.07;5.07;;;13.20;99.50;;;;;;5052298;28;20021;-70
2023/05/17 05:08:36;;;;;;;10.02;4.38;;;13.20;99.60;;;;;;5051855;28;20028;-67
2023/05/17 05:11:02;;;;;;;7.55;3.42;;;13.20;99.30;;;;;;5052194;28;20025;-67
2023/05/17 05:13:28;;;;;;;13.20;5.68;;;13.20;99.00;;;;;;5052451;28;20028;-70
2023/05/17 05:15:53;;;;;;;14.48;5.07;;;13.30;99.40;;;;;;5049282;28;20022;-68
2023/05/17 05:18:19;;;;;;;12.10;5.38;;;13.40;99.90;;;;;;5033733;28;20520;-66
2023/05/17 05:20:47;;;;;;;8.63;4.18;;;13.40;99.90;;;;;;5037771;28;20033;-67
2023/05/17 05:23:12;;;;;;;12.30;5.38;;;13.40;99.90;;;;;;5036003;28;20034;-67
2023/05/17 05:25:38;;;;;;;12.57;5.00;;;13.40;99.90;;;;;;5045479;28;20041;-67
2023/05/17 05:28:04;;;;;;;13.65;5.57;;;13.30;99.90;;;;;;5031159;28;20064;-68
2023/05/17 05:30:31;;;;;;;12.52;5.57;;;13.30;99.90;;;;;;5043067;28;20609;-67
2023/05/17 05:32:56;;;;;;;15.35;6.40;;;13.40;99.90;;;;;;5040821;28;20066;-67
2023/05/17 05:35:27;;;;;;;14.65;6.97;;;13.40;99.90;;;;;;5040250;28;20071;-67
2023/05/17 05:37:53;;;;;;;16.25;6.68;;;13.40;99.90;;;;;;5035271;28;20037;-66
2023/05/17 05:40:19;;;;;;;11.00;5.90;;;13.40;99.90;;;;;;5034093;28;20021;-67
2023/05/17 05:42:45;;;;;;;13.05;6.32;;;13.40;99.90;;;;;;5040817;28;20059;-68
2023/05/17 05:45:11;;;;;;;13.70;6.50;;;13.50;99.90;;;;;;5034587;28;20394;-67
2023/05/17 05:47:36;;;;;;;14.23;6.45;;;13.50;99.90;;;;;;5034859;28;20025;-67
2023/05/17 05:50:02;;;;;;;12.90;5.80;;;13.50;99.90;;;;;;5051753;28;20378;-68
2023/05/17 05:52:28;;;;;;;15.90;6.88;;;13.60;99.90;;;;;;5039713;28;20265;-68
2023/05/17 05:54:54;;;;;;;12.27;6.03;;;13.60;99.90;;;;;;5051753;28;20122;-68
2023/05/17 05:57:19;;;;;;;16.27;6.45;;;13.60;99.90;;;;;;5043536;28;20516;-67
2023/05/17 05:59:45;;;;;;;15.13;6.43;;;13.60;99.90;;;;;;5041626;28;20029;-68
2023/05/17 06:02:10;;;;;;;15.25;6.32;;;13.70;99.90;;;;;;5037417;28;20095;-67
2023/05/17 06:04:37;;;;;;;16.52;5.80;;;13.70;99.90;;;;;;5043185;28;20033;-68
2023/05/17 06:07:03;;;;;;;14.68;6.15;;;13.70;99.90;;;;;;5043338;28;20033;-67
2023/05/17 06:09:28;;;;;;;16.85;5.47;;;13.80;99.90;;;;;;5033119;28;20041;-68
2023/05/17 06:11:54;;;;;;;16.35;6.25;;;13.80;99.90;;;;;;5036122;28;20024;-69
2023/05/17 06:14:19;;;;;;;14.50;5.63;;;13.80;99.90;;;;;;5048897;28;20082;-67
2023/05/17 06:16:47;;;;;;;14.85;6.07;;;13.80;99.90;;;;;;5052371;28;20013;-67
2023/05/17 06:19:13;;;;;;;11.45;5.53;;;13.90;99.90;;;;;;5049022;28;20469;-68
2023/05/17 06:21:38;;;;;;;15.15;5.55;;;14.00;99.90;;;;;;5033066;28;20030;-67
2023/05/17 06:24:04;;;;;;;13.88;5.78;;;14.00;99.90;;;;;;5036613;28;20438;-68
2023/05/17 06:26:30;;;;;;;18.05;5.00;;;14.10;99.90;;;;;;5036516;28;20022;-68
2023/05/17 06:28:56;;;;;;;14.18;5.82;;;14.20;99.90;;;;;;5044749;28;20078;-67
2023/05/17 06:31:21;;;;;;;15.00;4.60;;;14.30;99.90;;;;;;5048989;28;20013;-66
2023/05/17 06:33:47;;;;;;;13.32;5.68;;;14.30;99.90;;;;;;5040994;28;20370;-68
2023/05/17 06:36:12;;;;;;;12.57;4.53;;;14.40;99.90;;;;;;5037372;28;20139;-67
2023/05/17 06:38:38;;;;;;;16.55;5.13;;;14.50;99.90;;;;;;5034800;28;20375;-68
2023/05/17 06:41:04;;;;;;;14.07;4.63;;;14.60;99.90;;;;;;5049367;28;20032;-67
2023/05/17 06:43:29;;;;;;;14.85;5.13;;;14.60;99.90;;;;;;5048802;28;20068;-65
2023/05/17 06:45:55;;;;;;;16.02;4.88;;;14.70;99.90;;;;;;5039719;28;20025;-65
2023/05/17 06:48:21;;;;;;;16.88;4.60;;;14.70;99.80;;;;;;5041196;28;20075;-65
2023/05/17 06:50:46;;;;;;;12.57;4.07;;;14.80;99.60;;;;;;5049074;28;20090;-65
2023/05/17 06:53:12;;;;;;;10.07;4.05;;;14.80;99.90;;;;;;5039936;28;20029;-65
2023/05/17 06:55:37;;;;;;;11.77;4.32;;;14.90;99.70;;;;;;5040424;28;20139;-65
2023/05/17 06:58:03;;;;;;;13.30;4.25;;;15.00;99.60;;;;;;5049397;28;20378;-65
2023/05/17 07:00:28;;;;;;;8.32;4.03;;;15.10;99.90;;;;;;5045542;28;20041;-64
2023/05/17 07:02:54;;;;;;;13.02;4.28;;;15.10;99.90;;;;;;5038940;28;20022;-64
2023/05/17 07:05:22;;;;;;;12.40;4.13;;;15.10;99.90;;;;;;5045911;28;20033;-67
2023/05/17 07:07:48;;;;;;;15.20;4.47;;;15.10;99.80;;;;;;5039934;28;20025;-64
2023/05/17 07:10:14;;;;;;;17.50;5.50;;;15.20;99.80;;;;;;5056932;28;20029;-64
2023/05/17 07:12:39;;;;;;;9.60;4.13;;;15.30;99.40;;;;;;5043543;28;20032;-64
2023/05/17 07:15:05;;;;;;;11.02;4.20;;;15.40;99.00;;;;;;5050992;28;20017;-66
2023/05/17 07:17:31;;;;;;;11.98;4.55;;;15.40;98.70;;;;;;5050574;28;20048;-64
2023/05/17 07:19:57;;;;;;;16.23;4.57;;;15.50;98.70;;;;;;5047414;28;20021;-64
2023/05/17 07:22:22;;;;;;;12.23;3.88;;;15.60;98.60;;;;;;5049034;28;20099;-64
2023/05/17 07:24:48;;;;;;;15.32;4.70;;;15.60;98.70;;;;;;5047536;28;20033;-63
2023/05/17 07:27:13;;;;;;;13.05;4.65;;;15.70;98.80;;;;;;5047723;28;20025;-64
2023/05/17 07:29:41;;;;;;;10.27;3.97;;;15.80;98.60;;;;;;5038739;28;20033;-69
2023/05/17 07:32:06;;;;;;;13.57;4.63;;;15.90;98.10;;;;;;5034921;28;20017;-71
2023/05/17 07:34:32;;;;;;;11.23;3.78;;;15.90;98.30;;;;;;5037964;28;20366;-69
2023/05/17 07:36:58;;;;;;;13.15;4.15;;;16.00;98.60;;;;;;5035852;28;20021;-69
2023/05/17 07:39:23;;;;;;;11.95;3.10;;;16.00;98.10;;;;;;5042201;28;20029;-69
2023/05/17 07:41:49;;;;;;;8.18;3.08;;;16.00;97.40;;;;;;5041553;28;20029;-69
2023/05/17 07:44:14;;;;;;;9.38;3.00;;;16.10;96.10;;;;;;5043872;28;20043;-66
2023/05/17 07:46:40;;;;;;;12.30;3.53;;;16.20;96.80;;;;;;5045675;28;20094;-66
2023/05/17 07:49:05;;;;;;;10.25;3.10;;;16.30;95.70;;;;;;5051740;28;20037;-65
2023/05/17 07:51:31;;;;;;;9.82;3.75;;;16.30;95.70;;;;;;5046332;28;20548;-66
2023/05/17 07:53:57;;;;;;;7.25;2.58;;;16.50;94.40;;;;;;5047405;28;20028;-65
2023/05/17 07:56:22;;;;;;;7.15;2.97;;;16.50;95.00;;;;;;5047208;28;20025;-66
2023/05/17 07:58:48;;;;;;;10.05;2.95;;;16.60;95.10;;;;;;5031834;28;20490;-65
2023/05/17 08:01:13;;;;;;;13.55;2.78;;;16.60;95.00;;;;;;5031788;28;20021;-66
2023/05/17 08:03:46;;;;;;;10.25;3.17;;;16.60;95.80;;;;;;5036021;28;20482;-66
2023/05/17 08:06:13;;;;;;;8.68;2.70;;;16.70;94.30;;;;;;5034070;28;20036;-65
2023/05/17 08:08:39;;;;;;;6.90;2.20;;;16.80;93.10;;;;;;5042367;28;20040;-66
2023/05/17 08:11:06;;;;;;;10.00;2.42;;;16.90;92.30;;;;;;5035717;28;20100;-66
2023/05/17 08:13:31;;;;;;;12.68;2.90;;;16.90;92.50;;;;;;5032852;28;20033;-65
2023/05/17 08:16:02;;;;;;;12.95;3.15;;;16.90;91.10;;;;;;5036255;28;20078;-65
2023/05/17 08:18:28;;;;;;;6.55;2.20;;;16.90;93.20;;;;;;5044893;28;20095;-66
2023/05/17 08:20:54;;;;;;;9.40;2.53;;;17.00;91.90;;;;;;5033312;28;20053;-64
2023/05/17 08:23:20;;;;;;;7.90;2.60;;;17.00;91.40;;;;;;5040956;28;20621;-65
2023/05/17 08:25:45;;;;;;;9.77;2.65;;;17.10;91.20;;;;;;5036153;28;20112;-64
2023/05/17 08:28:11;;;;;;;6.97;2.13;;;17.10;91.00;;;;;;5047348;28;20075;-64
2023/05/17 08:30:37;;;;;;;8.02;2.55;;;17.20;89.70;;;;;;5050554;28;20083;-64
2023/05/17 08:33:02;;;;;;;5.03;2.30;;;17.20;89.60;;;;;;5043573;28;20502;-64
2023/05/17 08:35:28;;;;;;;7.53;2.15;;;17.20;90.20;;;;;;5032792;28;20068;-64
2023/05/17 08:37:54;;;;;;;7.32;2.45;;;17.20;89.70;;;;;;5038568;28;20394;-64
2023/05/17 08:40:20;;;;;;;9.48;2.78;;;17.30;90.40;;;;;;5038095;28;20108;-64
2023/05/17 08:42:46;;;;;;;8.85;2.45;;;17.30;90.70;;;;;;5047684;28;20532;-65
2023/05/17 08:45:13;;;;;;;10.05;2.50;;;17.30;90.60;;;;;;5036896;28;20038;-65
2023/05/17 08:47:41;;;;;;;7.60;2.20;;;17.30;89.50;;;;;;5040958;28;20021;-65
2023/05/17 08:50:07;;;;;;;9.77;2.63;;;17.40;90.90;;;;;;5050723;28;20111;-65
2023/05/17 08:52:36;;;;;;;5.97;2.78;;;17.40;90.70;;;;;;5034102;28;20159;-64
2023/05/17 08:55:04;;;;;;;6.75;1.90;;;17.40;90.40;;;;;;5032662;28;20489;-65
2023/05/17 08:57:32;;;;;;;6.70;2.35;;;17.50;89.50;;;;;;5033341;28;20029;-64
2023/05/17 08:59:59;;;;;;;8.45;2.58;;;17.50;89.60;;;;;;5042442;28;20033;-64
2023/05/17 09:02:27;;;;;;;6.85;2.20;;;17.60;89.10;;;;;;5035757;28;20021;-64
2023/05/17 09:04:54;;;;;;;6.70;1.88;;;17.60;87.00;;;;;;5051261;28;20041;-68
2023/05/17 09:07:23;;;;;;;7.70;2.28;;;17.60;90.50;;;;;;5033157;28;20021;-65
2023/05/17 09:09:52;;;;;;;6.95;2.00;;;17.60;87.40;;;;;;5049907;28;20155;-66
2023/05/17 09:12:21;;;;;;;7.50;2.42;;;17.60;89.10;;;;;;5044180;28;20039;-66
2023/05/17 09:14:48;;;;;;;7.40;2.53;;;17.60;87.60;;;;;;5038139;28;20040;-66
2023/05/17 09:17:16;;;;;;;8.05;2.30;;;17.60;89.90;;;;;;5038552;28;20060;-66
2023/05/17 09:19:43;;;;;;;8.52;2.33;;;17.70;87.40;;;;;;5035816;28;20025;-66
2023/05/17 09:22:10;;;;;;;9.27;2.28;;;17.70;86.20;;;;;;5044199;28;20017;-66
2023/05/17 09:24:36;;;;;;;6.85;2.10;;;17.70;85.60;;;;;;5053169;28;20036;-66
2023/05/17 09:27:03;;;;;;;8.27;2.40;;;17.70;85.40;;;;;;5054610;28;20047;-66
2023/05/17 09:29:31;;;;;;;9.85;2.05;;;17.70;85.50;;;;;;5055911;28;20486;-66
2023/05/17 09:32:11;;;;;;;9.27;2.50;;;17.70;85.90;;;;;;5047707;28;20032;-66
2023/05/17 09:34:39;;;;;;;5.97;1.98;;;17.80;84.70;;;;;;5036148;28;20029;-66
2023/05/17 09:37:11;;;;;;;9.52;2.22;;;17.80;89.00;;;;;;5044306;28;20128;-65
2023/05/17 09:39:36;;;;;;;6.38;1.92;;;17.80;85.60;;;;;;5046157;28;20025;-65
2023/05/17 09:42:03;;;;;;;7.38;2.50;;;17.80;86.60;;;;;;5047336;28;20539;-64
2023/05/17 09:44:29;;;;;;;8.50;2.28;;;17.80;84.50;;;;;;5053537;28;20040;-64
2023/05/17 09:46:57;;;;;;;8.68;2.13;;;17.80;84.40;;;;;;5037721;28;20016;-64
2023/05/17 09:49:27;;;;;;;10.45;3.03;;;17.80;84.60;;;;;;5039212;28;20029;-66
2023/05/17 09:51:54;;;;;;;8.40;1.95;;;17.90;85.00;;;;;;5046840;28;20532;-66
2023/05/17 09:54:19;;;;;;;5.53;1.90;;;17.80;88.40;;;;;;5045346;28;20051;-64
2023/05/17 09:56:53;;;;;;;10.20;2.30;;;17.80;84.90;;;;;;5051593;28;20734;-64
2023/05/17 09:59:19;;;;;;;10.07;2.53;;;17.90;85.40;;;;;;5059305;28;20033;-66
2023/05/17 10:01:49;;;;;;;8.77;2.63;;;17.90;85.30;;;;;;5044400;28;20021;-64
2023/05/17 10:04:19;;;;;;;8.57;2.25;;;17.90;83.30;;;;;;5051993;28;20037;-64
2023/05/17 10:06:45;;;;;;;8.75;2.60;;;17.90;85.20;;;;;;5053279;28;20032;-64
2023/05/17 10:09:13;;;;;;;7.70;2.08;;;17.90;86.80;;;;;;5040893;28;20026;-64
2023/05/17 10:11:42;;;;;;;11.50;2.95;;;17.90;84.20;;;;;;5042751;28;20040;-64
2023/05/17 10:14:27;;;;;;;6.78;1.88;;;17.90;83.60;;;;;;5038300;28;20459;-64
2023/05/17 10:16:53;;;;;;;12.73;2.50;;;18.00;85.20;;;;;;5036852;28;20053;-64
2023/05/17 10:19:20;;;;;;;6.38;2.15;;;18.00;82.80;;;;;;5040954;28;20429;-64
2023/05/17 10:21:49;;;;;;;8.90;1.98;;;17.90;84.70;;;;;;5042263;28;20036;-64
2023/05/17 10:24:15;;;;;;;8.43;1.88;;;17.90;88.30;;;;;;5037364;28;20620;-64
2023/05/17 10:26:42;;;;;;;7.35;2.00;;;17.90;85.20;;;;;;5034960;28;20036;-64
2023/05/17 10:29:08;;;;;;;8.65;2.22;;;18.00;82.50;;;;;;5039493;28;20037;-64
2023/05/17 10:31:35;;;;;;;9.10;2.03;;;17.90;82.80;;;;;;5047390;28;20040;-64
2023/05/17 10:34:02;;;;;;;8.38;2.10;;;18.00;83.10;;;;;;5042224;28;20026;-64
2023/05/17 10:36:29;;;;;;;7.65;2.13;;;18.00;80.00;;;;;;5047073;28;20033;-64
2023/05/17 10:38:57;;;;;;;7.20;1.95;;;17.90;81.50;;;;;;5040262;28;20115;-67
2023/05/17 10:41:27;;;;;;;5.68;1.83;;;17.90;81.80;;;;;;5032300;28;20080;-67
2023/05/17 10:43:54;;;;;;;7.95;2.13;;;17.90;81.40;;;;;;5036872;28;20046;-66
2023/05/17 10:46:21;;;;;;;9.32;2.25;;;18.00;79.90;;;;;;5033736;28;20379;-65
2023/05/17 10:48:51;;;;;;;18.10;7.13;;;18.00;79.60;;;;;;5045893;28;20029;-66
2023/05/17 10:51:31;;;;;;;27.38;15.00;;;18.00;83.10;;;;;;5040485;28;20044;-66
2023/05/17 10:54:06;;;;;;;17.90;6.97;;;18.00;86.40;;;;;;5031516;28;20086;-66
2023/05/17 10:56:32;;;;;;;9.48;4.55;;;18.00;81.50;;;;;;5037561;28;20037;-65
2023/05/17 10:59:28;;;;;;;30.50;17.98;;;18.00;79.60;;;;;;5032900;28;20379;-66
2023/05/17 11:02:05;;;;;;;12.32;5.35;;;18.00;88.40;;;;;;5026444;28;20037;-65
2023/05/17 11:04:40;;;;;;;11.15;5.72;;;18.00;80.80;;;;;;5042999;28;20029;-65
2023/05/17 11:07:15;;;;;;;8.98;2.75;;;18.00;80.20;;;;;;5039435;28;20127;-66
2023/05/17 11:09:42;;;;;;;16.13;8.63;;;17.90;77.50;;;;;;5041284;28;20056;-67
2023/05/17 11:12:12;;;;;;;7.88;2.83;;;17.90;81.50;;;;;;5042397;28;20013;-68
2023/05/17 11:14:44;;;;;;;10.43;4.47;;;17.90;77.60;;;;;;5043425;28;20091;-66
2023/05/17 11:17:13;;;;;;;8.13;2.35;;;17.90;79.50;;;;;;5045428;28;20534;-66
2023/05/17 11:19:54;;;;;;;11.30;3.25;;;17.80;78.20;;;;;;5045082;28;20513;-67
2023/05/17 11:22:26;;;;;;;10.27;5.63;;;17.90;79.30;;;;;;5041941;28;20013;-65
2023/05/17 11:24:55;;;;;;;10.13;4.28;;;17.90;81.60;;;;;;5033750;28;20422;-66
2023/05/17 11:27:26;;;;;;;10.60;3.03;;;18.00;79.90;;;;;;5050011;28;20025;-66
2023/05/17 11:29:57;;;;;;;10.35;4.88;;;17.90;79.20;;;;;;5038340;28;20029;-66
2023/05/17 11:32:31;;;;;;;6.43;2.92;;;18.00;82.60;;;;;;5041265;28;20017;-66
2023/05/17 11:35:00;;;;;;;6.65;2.03;;;18.00;79.20;;;;;;5037459;28;20029;-66
2023/05/17 11:37:27;;;;;;;7.57;1.48;;;18.00;77.30;;;;;;5040783;28;20533;-66
2023/05/17 11:40:04;;;;;;;5.13;1.52;;;18.10;78.50;;;;;;5054341;28;20073;-65
2023/05/17 11:42:30;;;;;;;5.50;1.40;;;18.10;77.70;;;;;;5038230;28;20030;-66
2023/05/17 11:44:59;;;;;;;7.88;2.53;;;18.10;78.00;;;;;;5043002;28;20567;-65
2023/05/17 11:47:25;;;;;;;7.80;2.47;;;18.10;80.00;;;;;;5042541;28;20029;-65
2023/05/17 11:49:53;;;;;;;8.82;2.20;;;18.10;79.40;;;;;;5044947;28;21460;-66
2023/05/17 11:52:19;;;;;;;6.18;2.05;;;18.20;79.00;;;;;;5045395;28;20017;-65
2023/05/17 11:54:46;;;;;;;6.68;1.85;;;18.20;78.80;;;;;;5037960;28;20087;-66
2023/05/17 11:57:15;;;;;;;10.48;2.20;;;18.20;80.00;;;;;;5045241;28;20442;-65
2023/05/17 11:59:44;;;;;;;5.47;1.80;;;18.20;78.90;;;;;;5033064;28;20032;-66
2023/05/17 12:02:25;;;;;;;5.25;2.17;;;18.20;79.00;;;;;;5043927;28;20104;-65
2023/05/17 12:04:51;;;;;;;7.38;2.25;;;18.20;79.30;;;;;;5045071;28;20033;-65
2023/05/17 12:07:16;;;;;;;10.27;2.08;;;18.20;80.70;;;;;;5051189;28;20100;-66
2023/05/17 12:09:44;;;;;;;5.30;1.65;;;18.20;78.90;;;;;;5037890;28;20086;-65
2023/05/17 12:12:10;;;;;;;6.55;1.95;;;18.20;78.20;;;;;;5039633;28;20101;-66
2023/05/17 12:14:36;;;;;;;6.85;1.42;;;18.20;77.50;;;;;;5036647;28;20441;-65
2023/05/17 12:17:06;;;;;;;6.13;1.90;;;18.10;77.40;;;;;;5046144;28;20474;-67
2023/05/17 12:19:32;;;;;;;6.22;1.65;;;18.20;78.50;;;;;;5044432;28;20539;-67
2023/05/17 12:22:08;;;;;;;5.40;1.50;;;18.20;78.80;;;;;;5032963;28;20025;-67
2023/05/17 12:24:40;;;;;;;6.00;1.60;;;18.20;79.30;;;;;;5042527;28;20036;-65
2023/05/17 12:27:07;;;;;;;4.82;1.58;;;18.20;78.80;;;;;;5055149;28;20098;-66
2023/05/17 12:29:32;;;;;;;6.75;1.80;;;18.20;79.50;;;;;;5045362;28;20033;-65
2023/05/17 12:32:00;;;;;;;6.25;1.50;;;18.20;80.00;;;;;;5045148;28;20029;-65
2023/05/17 12:34:26;;;;;;;3.00;1.15;;;18.30;78.20;;;;;;5041711;28;20033;-65
2023/05/17 12:36:52;;;;;;;5.78;1.55;;;18.30;77.90;;;;;;5033603;28;20029;-65
2023/05/17 12:39:22;;;;;;;7.15;1.77;;;18.30;78.60;;;;;;5029296;28;20025;-65
2023/05/17 12:41:50;;;;;;;6.20;1.40;;;18.30;79.30;;;;;;5033255;28;20044;-65